Terminal Aerodrome Forecast
Issued by NWS

Home | Current Version | Previous Version | Text Only | Print | Product List | Glossary On
Versions: 1 2 3 4 5 6 7 8 9 10 11 12 13 14 15 16 17 18 19
000
FTUS41 KILN 291100
TAFLCK
TAF
KLCK 291134Z 2912/3012 15004KT P6SM BKN120
     FM291500 19008KT P6SM SCT120
     FM291800 20010KT P6SM SCT050
     FM292000 19012G20KT P6SM VCTS BKN040CB
     FM300000 19007KT P6SM SCT050
     FM300900 19006KT 4SM BR SCT060=

USA.gov is the U.S. government's official web portal to all federal, state and local government web resources and services.